createdAt,value
2019-05-18T00:01:58.464Z,12.65
2019-05-18T00:04:25.804Z,12.59
2019-05-18T00:06:52.975Z,12.49
2019-05-18T00:09:20.136Z,12.37
2019-05-18T00:11:47.358Z,12.28
2019-05-18T00:14:14.490Z,12.18
2019-05-18T00:16:42.310Z,12.14
2019-05-18T00:19:09.526Z,12.15
2019-05-18T00:21:36.621Z,12.19
2019-05-18T00:24:03.772Z,12.20
2019-05-18T00:26:31.197Z,12.11
2019-05-18T00:28:58.344Z,12.08
2019-05-18T00:31:25.525Z,12.06
2019-05-18T00:33:52.701Z,12.03
2019-05-18T00:36:19.950Z,12.01
2019-05-18T00:38:47.170Z,11.96
2019-05-18T00:41:14.401Z,11.99
2019-05-18T00:43:41.545Z,11.89
2019-05-18T00:46:08.728Z,11.78
2019-05-18T00:48:35.912Z,11.70
2019-05-18T00:51:03.014Z,11.63
2019-05-18T00:53:30.151Z,11.74
2019-05-18T00:55:57.350Z,11.76
2019-05-18T00:58:24.515Z,11.75
2019-05-18T01:00:51.675Z,11.63
2019-05-18T01:03:18.863Z,11.51
2019-05-18T01:05:45.911Z,11.44
2019-05-18T01:08:13.012Z,11.37
2019-05-18T01:10:40.489Z,11.31
2019-05-18T01:13:07.676Z,11.32
2019-05-18T01:15:35.163Z,11.34
2019-05-18T01:18:02.609Z,11.29
2019-05-18T01:20:29.685Z,11.24
2019-05-18T01:22:57.262Z,11.19
2019-05-18T01:25:24.549Z,11.16
2019-05-18T01:27:51.977Z,11.10
2019-05-18T01:30:20.132Z,11.04
2019-05-18T01:32:47.529Z,11.02
2019-05-18T01:35:14.695Z,11.00
2019-05-18T01:37:42.187Z,10.95
2019-05-18T01:40:10.298Z,10.94
2019-05-18T01:42:37.473Z,10.91
2019-05-18T01:45:16.280Z,11.00
2019-05-18T01:47:34.011Z,10.92
2019-05-18T01:50:01.059Z,10.89
2019-05-18T01:52:28.207Z,10.96
2019-05-18T01:54:55.634Z,11.10
2019-05-18T01:57:22.825Z,11.17
2019-05-18T01:59:49.949Z,11.08
2019-05-18T02:02:17.131Z,10.97
2019-05-18T02:04:44.277Z,10.87
2019-05-18T02:07:11.439Z,10.79
2019-05-18T02:09:38.621Z,10.73
2019-05-18T02:12:05.832Z,10.70
2019-05-18T02:14:33.015Z,10.68
2019-05-18T02:17:00.193Z,10.69
2019-05-18T02:19:27.376Z,10.72
2019-05-18T02:21:54.927Z,10.78
2019-05-18T02:24:22.104Z,10.78
2019-05-18T02:26:49.240Z,10.80
2019-05-18T02:29:16.394Z,10.79
2019-05-18T02:31:43.584Z,10.77
2019-05-18T02:34:10.772Z,10.76
2019-05-18T02:36:37.830Z,10.79
2019-05-18T02:39:06.122Z,10.83
2019-05-18T02:41:33.320Z,10.91
2019-05-18T02:44:00.568Z,10.94
2019-05-18T02:46:27.741Z,11.02
2019-05-18T02:48:54.902Z,11.17
2019-05-18T02:51:22.032Z,11.21
2019-05-18T02:53:49.240Z,11.27
2019-05-18T02:56:16.414Z,11.25
2019-05-18T02:58:43.679Z,11.26
2019-05-18T03:01:10.882Z,11.33
2019-05-18T03:03:38.369Z,11.45
2019-05-18T03:06:05.530Z,11.41
2019-05-18T03:08:32.893Z,11.46
2019-05-18T03:11:00.076Z,11.55
2019-05-18T03:13:27.276Z,11.56
2019-05-18T03:15:54.735Z,11.45
2019-05-18T03:18:21.881Z,11.38
2019-05-18T03:20:48.976Z,11.35
2019-05-18T03:23:16.596Z,11.30
2019-05-18T03:25:44.053Z,11.24
2019-05-18T03:28:11.297Z,11.17
2019-05-18T03:30:38.492Z,11.13
2019-05-18T03:33:05.808Z,11.11
2019-05-18T03:35:33.060Z,11.07
2019-05-18T03:38:00.251Z,11.03
2019-05-18T03:40:27.412Z,11.00
2019-05-18T03:42:54.605Z,10.99
2019-05-18T03:45:21.940Z,10.95
2019-05-18T03:47:49.004Z,10.94
2019-05-18T03:50:16.189Z,10.93
2019-05-18T03:52:43.361Z,10.96
2019-05-18T03:55:10.586Z,11.00
2019-05-18T03:57:37.796Z,11.03
2019-05-18T04:00:05.433Z,11.05
2019-05-18T04:02:32.628Z,11.10
2019-05-18T04:04:59.782Z,11.14
2019-05-18T04:07:26.980Z,11.21
2019-05-18T04:09:54.431Z,11.28
2019-05-18T04:12:21.673Z,11.39
2019-05-18T04:14:48.936Z,11.48
2019-05-18T04:17:16.141Z,11.63
2019-05-18T04:19:46.845Z,11.77
2019-05-18T04:22:13.539Z,11.91
2019-05-18T04:24:41.383Z,12.05
2019-05-18T04:27:09.658Z,12.15
2019-05-18T04:29:36.931Z,12.29
2019-05-18T04:32:04.039Z,12.36
2019-05-18T04:34:31.253Z,12.40
2019-05-18T04:36:58.452Z,12.39
2019-05-18T04:39:25.956Z,12.31
2019-05-18T04:41:55.043Z,12.33
2019-05-18T04:44:22.739Z,12.35
2019-05-18T04:46:51.537Z,12.45
2019-05-18T04:49:19.666Z,12.60
2019-05-18T04:51:47.150Z,12.68
2019-05-18T04:54:14.578Z,12.79
2019-05-18T04:56:43.172Z,12.91
2019-05-18T04:59:10.833Z,13.00
2019-05-18T05:01:38.725Z,13.09
2019-05-18T05:04:06.382Z,13.16
2019-05-18T05:06:34.680Z,13.12
2019-05-18T05:09:02.374Z,13.16
2019-05-18T05:11:29.740Z,13.22
2019-05-18T05:13:58.881Z,13.34
2019-05-18T05:16:31.025Z,13.45
2019-05-18T05:19:01.081Z,13.58
2019-05-18T05:21:30.901Z,13.61
2019-05-18T05:23:58.690Z,13.67
2019-05-18T05:26:26.043Z,13.88
2019-05-18T05:28:53.758Z,14.08
2019-05-18T05:31:21.146Z,14.02
2019-05-18T05:33:48.637Z,13.92
2019-05-18T05:36:16.184Z,13.97
2019-05-18T05:38:44.476Z,14.19
2019-05-18T05:41:16.483Z,14.31
2019-05-18T05:43:46.817Z,14.59
2019-05-18T05:46:14.673Z,14.75
2019-05-18T05:48:42.100Z,15.17
2019-05-18T05:51:09.318Z,15.70
2019-05-18T05:53:36.585Z,16.35
2019-05-18T05:56:03.867Z,17.20
2019-05-18T05:58:31.103Z,18.23
2019-05-18T06:00:58.880Z,19.68
2019-05-18T06:03:26.196Z,21.34
2019-05-18T06:05:53.516Z,22.47
2019-05-18T06:08:20.992Z,22.97
2019-05-18T06:10:48.170Z,23.79
2019-05-18T06:13:15.892Z,24.80
2019-05-18T06:15:43.282Z,25.30
2019-05-18T06:18:10.847Z,25.82
2019-05-18T06:20:50.355Z,26.13
2019-05-18T06:23:07.870Z,26.43
2019-05-18T06:25:35.806Z,27.93
2019-05-18T06:28:03.243Z,29.61
2019-05-18T06:30:30.593Z,30.57
2019-05-18T06:32:57.855Z,30.96
2019-05-18T06:35:25.222Z,29.92
2019-05-18T06:37:52.596Z,28.50
2019-05-18T06:40:19.820Z,28.56
2019-05-18T06:42:48.478Z,28.74
2019-05-18T06:45:15.718Z,28.32
2019-05-18T06:47:42.818Z,27.78
2019-05-18T06:50:12.577Z,27.38
2019-05-18T06:52:39.384Z,27.75
2019-05-18T06:55:06.728Z,28.60
2019-05-18T06:57:34.472Z,29.24
2019-05-18T07:00:02.265Z,28.96
2019-05-18T07:02:29.720Z,27.93
2019-05-18T07:04:57.066Z,27.66
2019-05-18T07:07:24.288Z,27.33
2019-05-18T07:09:51.514Z,26.97
2019-05-18T07:12:20.132Z,26.77
2019-05-18T07:14:47.536Z,26.27
2019-05-18T07:17:15.423Z,25.87
2019-05-18T07:19:42.973Z,25.66
2019-05-18T07:22:10.420Z,25.63
2019-05-18T07:24:37.688Z,25.86
2019-05-18T07:27:04.992Z,25.94
2019-05-18T07:29:32.194Z,26.20
2019-05-18T07:32:00.041Z,27.35
2019-05-18T07:34:27.337Z,29.34
2019-05-18T07:36:55.054Z,30.81
2019-05-18T07:39:22.333Z,31.10
2019-05-18T07:41:49.640Z,31.28
2019-05-18T07:44:16.968Z,31.22
2019-05-18T07:46:44.358Z,31.30
2019-05-18T07:49:13.654Z,31.49
2019-05-18T07:51:41.634Z,32.02
2019-05-18T07:54:09.693Z,34.01
2019-05-18T07:56:37.235Z,35.01
2019-05-18T07:59:04.821Z,35.23
2019-05-18T08:01:32.218Z,35.03
2019-05-18T08:03:59.561Z,35.25
2019-05-18T08:06:27.275Z,35.91
2019-05-18T08:08:54.864Z,36.57
2019-05-18T08:11:22.128Z,36.26
2019-05-18T08:13:49.620Z,35.16
2019-05-18T08:16:17.150Z,34.87
2019-05-18T08:18:44.426Z,35.71
2019-05-18T08:21:11.643Z,38.42
2019-05-18T08:23:39.259Z,41.39
2019-05-18T08:26:06.742Z,43.94
2019-05-18T08:28:34.246Z,46.47
2019-05-18T08:31:02.643Z,48.76
2019-05-18T08:33:29.925Z,49.82
2019-05-18T08:35:57.164Z,50.44
2019-05-18T08:38:25.040Z,51.21
2019-05-18T08:40:52.283Z,50.95
2019-05-18T08:43:20.131Z,50.02
2019-05-18T08:45:47.367Z,49.66
2019-05-18T08:48:15.585Z,49.79
2019-05-18T08:50:42.965Z,49.98
2019-05-18T08:53:10.573Z,50.40
2019-05-18T08:55:37.825Z,51.15
2019-05-18T08:58:05.267Z,50.45
2019-05-18T09:00:32.842Z,49.79
2019-05-18T09:03:00.339Z,50.08
2019-05-18T09:05:29.512Z,50.28
2019-05-18T09:07:57.224Z,50.27
2019-05-18T09:10:24.522Z,50.21
2019-05-18T09:12:51.985Z,49.48
2019-05-18T09:15:19.392Z,48.94
2019-05-18T09:17:46.587Z,48.66
2019-05-18T09:20:14.175Z,48.26
2019-05-18T09:22:41.559Z,48.23
2019-05-18T09:25:09.795Z,48.19
2019-05-18T09:27:37.411Z,48.37
2019-05-18T09:30:05.861Z,47.61
2019-05-18T09:32:33.332Z,47.35
2019-05-18T09:35:01.138Z,47.06
2019-05-18T09:37:28.438Z,46.81
2019-05-18T09:39:56.100Z,46.88
2019-05-18T09:42:23.474Z,46.29
2019-05-18T09:44:50.711Z,46.14
2019-05-18T09:47:18.536Z,45.45
2019-05-18T09:49:45.965Z,44.72
2019-05-18T09:52:13.668Z,44.15
2019-05-18T09:54:41.507Z,43.75
2019-05-18T09:57:09.188Z,42.54
2019-05-18T09:59:36.536Z,41.12
2019-05-18T10:02:03.909Z,39.92
2019-05-18T10:04:31.373Z,37.44
2019-05-18T10:06:59.760Z,34.68
2019-05-18T10:09:36.978Z,32.79
2019-05-18T10:11:56.618Z,31.68
2019-05-18T10:14:44.098Z,30.82
2019-05-18T10:17:11.478Z,30.17
2019-05-18T10:19:38.966Z,29.80
2019-05-18T10:22:06.254Z,29.35
2019-05-18T10:24:33.676Z,28.41
2019-05-18T10:27:02.019Z,28.16
2019-05-18T10:29:30.019Z,28.25
2019-05-18T10:31:57.975Z,27.37
2019-05-18T10:34:25.250Z,26.67
2019-05-18T10:36:52.471Z,26.29
2019-05-18T10:39:19.688Z,26.06
2019-05-18T10:41:46.990Z,26.14
2019-05-18T10:44:14.236Z,25.84
2019-05-18T10:46:41.581Z,25.81
2019-05-18T10:49:09.156Z,25.93
2019-05-18T10:51:36.471Z,26.19
2019-05-18T10:54:03.743Z,26.31
2019-05-18T10:56:31.756Z,26.13
2019-05-18T10:58:59.136Z,25.51
2019-05-18T11:01:28.587Z,25.31
2019-05-18T11:03:56.110Z,25.46
2019-05-18T11:06:23.459Z,25.69
2019-05-18T11:09:20.761Z,25.64
2019-05-18T11:11:57.891Z,25.22
2019-05-18T11:14:28.099Z,25.05
2019-05-18T11:16:55.344Z,25.30
2019-05-18T11:19:22.634Z,25.49
2019-05-18T11:21:50.947Z,25.39
2019-05-18T11:24:18.302Z,25.39
2019-05-18T11:26:45.921Z,25.56
2019-05-18T11:29:13.171Z,25.69
2019-05-18T11:31:41.822Z,25.67
2019-05-18T11:34:09.056Z,25.63
2019-05-18T11:36:36.614Z,25.60
2019-05-18T11:39:05.927Z,25.61
2019-05-18T11:41:33.589Z,25.57
2019-05-18T11:44:01.251Z,25.69
2019-05-18T11:46:29.836Z,25.82
2019-05-18T11:48:58.602Z,25.92
2019-05-18T11:51:25.944Z,25.51
2019-05-18T11:53:58.384Z,25.38
2019-05-18T11:56:22.394Z,25.59
2019-05-18T11:58:49.700Z,25.66
2019-05-18T12:01:16.965Z,25.26
2019-05-18T12:03:44.169Z,25.23
2019-05-18T12:06:11.472Z,25.22
2019-05-18T12:08:38.703Z,25.46
2019-05-18T12:11:05.948Z,25.34
2019-05-18T12:13:36.356Z,25.22
2019-05-18T12:16:03.880Z,25.31
2019-05-18T12:18:31.269Z,25.60
2019-05-18T12:20:58.679Z,25.79
2019-05-18T12:23:25.891Z,25.79
2019-05-18T12:25:53.811Z,25.40
2019-05-18T12:28:21.056Z,25.56
2019-05-18T12:30:48.568Z,25.79
2019-05-18T12:33:34.395Z,25.78
2019-05-18T12:36:01.690Z,25.63
2019-05-18T12:38:31.243Z,25.82
2019-05-18T12:40:59.000Z,25.88
2019-05-18T12:43:26.413Z,25.82
2019-05-18T12:45:54.162Z,25.77
2019-05-18T12:48:21.978Z,26.00
2019-05-18T12:50:49.237Z,26.42
2019-05-18T12:53:17.797Z,26.31
2019-05-18T12:55:45.364Z,26.29
2019-05-18T12:58:12.778Z,26.18
2019-05-18T13:00:40.379Z,26.06
2019-05-18T13:03:07.580Z,25.95
2019-05-18T13:05:35.931Z,25.92
2019-05-18T13:08:03.300Z,25.64
2019-05-18T13:10:30.552Z,25.69
2019-05-18T13:12:58.446Z,25.86
2019-05-18T13:15:26.638Z,25.80
2019-05-18T13:17:53.852Z,25.84
2019-05-18T13:20:21.290Z,25.93
2019-05-18T13:22:48.573Z,25.96
2019-05-18T13:25:16.965Z,26.09
2019-05-18T13:27:44.714Z,26.05
2019-05-18T13:30:12.973Z,25.98
2019-05-18T13:32:40.221Z,25.78
2019-05-18T13:35:08.198Z,25.32
2019-05-18T13:37:36.259Z,25.25
2019-05-18T13:40:03.946Z,25.22
2019-05-18T13:42:31.346Z,25.04
2019-05-18T13:44:58.434Z,24.92
2019-05-18T13:47:25.684Z,24.96
2019-05-18T13:49:53.244Z,24.95
2019-05-18T13:52:20.485Z,24.88
2019-05-18T13:55:02.163Z,24.99
2019-05-18T13:57:16.974Z,25.00
2019-05-18T13:59:44.204Z,25.25
2019-05-18T14:02:12.395Z,25.42
2019-05-18T14:04:39.855Z,25.82
2019-05-18T14:07:07.104Z,26.05
2019-05-18T14:09:34.946Z,26.23
2019-05-18T14:12:02.221Z,26.37
2019-05-18T14:14:29.491Z,26.26
2019-05-18T14:16:57.289Z,25.45
2019-05-18T14:19:25.285Z,25.33
2019-05-18T14:21:52.745Z,25.36
2019-05-18T14:24:20.265Z,25.30
2019-05-18T14:26:48.627Z,25.23
2019-05-18T14:29:16.004Z,25.25
2019-05-18T14:31:43.675Z,25.48
2019-05-18T14:34:11.019Z,25.67
2019-05-18T14:36:38.362Z,25.76
2019-05-18T14:39:05.779Z,25.64
2019-05-18T14:41:33.062Z,25.85
2019-05-18T14:44:00.375Z,25.90
2019-05-18T14:46:27.638Z,26.02
2019-05-18T14:48:55.924Z,25.92
2019-05-18T14:51:23.329Z,25.42
2019-05-18T14:53:53.270Z,25.13
2019-05-18T14:56:20.914Z,25.22
2019-05-18T14:58:48.433Z,25.37
2019-05-18T15:01:15.712Z,25.61
2019-05-18T15:03:44.114Z,25.79
2019-05-18T15:06:11.498Z,25.82
2019-05-18T15:08:38.810Z,25.87
2019-05-18T15:11:06.149Z,26.15
2019-05-18T15:13:33.349Z,26.26
2019-05-18T15:16:00.718Z,26.48
2019-05-18T15:18:28.524Z,26.65
2019-05-18T15:20:57.710Z,26.77
2019-05-18T15:23:25.146Z,26.86
2019-05-18T15:25:52.496Z,26.90
2019-05-18T15:28:19.793Z,26.93
2019-05-18T15:30:47.047Z,26.80
2019-05-18T15:33:14.382Z,26.56
2019-05-18T15:35:42.100Z,26.24
2019-05-18T15:38:09.826Z,26.16
2019-05-18T15:40:37.564Z,26.08
2019-05-18T15:43:05.280Z,25.92
2019-05-18T15:45:33.086Z,25.83
2019-05-18T15:48:00.472Z,25.77
2019-05-18T15:50:27.756Z,25.71
2019-05-18T15:52:55.011Z,25.59
2019-05-18T15:55:24.160Z,25.52
2019-05-18T15:57:51.593Z,25.53
2019-05-18T16:00:19.976Z,25.46
2019-05-18T16:02:48.166Z,25.45
2019-05-18T16:05:18.862Z,25.43
2019-05-18T16:07:46.143Z,25.38
2019-05-18T16:10:13.913Z,25.26
2019-05-18T16:12:41.225Z,25.21
2019-05-18T16:15:09.043Z,25.20
2019-05-18T16:17:39.309Z,25.24
2019-05-18T16:20:06.057Z,25.25
2019-05-18T16:22:33.436Z,25.19
2019-05-18T16:25:04.540Z,25.14
2019-05-18T16:27:31.872Z,25.08
2019-05-18T16:30:00.968Z,25.01
2019-05-18T16:32:31.392Z,24.96
2019-05-18T16:35:00.307Z,24.83
2019-05-18T16:37:29.093Z,24.78
2019-05-18T16:39:56.536Z,24.75
2019-05-18T16:42:25.158Z,24.65
2019-05-18T16:44:52.893Z,24.54
2019-05-18T16:47:21.542Z,24.47
2019-05-18T16:49:48.843Z,24.42
2019-05-18T16:52:16.152Z,24.37
2019-05-18T16:54:45.244Z,24.24
2019-05-18T16:57:13.410Z,24.18
2019-05-18T16:59:40.864Z,24.15
2019-05-18T17:02:08.243Z,24.02
2019-05-18T17:04:37.967Z,23.88
2019-05-18T17:07:07.711Z,23.90
2019-05-18T17:09:36.406Z,23.92
2019-05-18T17:12:06.091Z,23.93
2019-05-18T17:14:34.326Z,23.91
2019-05-18T17:17:02.877Z,23.90
2019-05-18T17:19:30.229Z,23.89
2019-05-18T17:21:57.673Z,23.88
2019-05-18T17:24:25.407Z,23.86
2019-05-18T17:26:53.595Z,23.80
2019-05-18T17:29:20.993Z,23.72
2019-05-18T17:31:48.334Z,23.64
2019-05-18T17:34:16.275Z,23.57
2019-05-18T17:36:43.822Z,23.47
2019-05-18T17:39:12.507Z,23.38
2019-05-18T17:41:39.825Z,23.29
2019-05-18T17:44:07.053Z,23.23
2019-05-18T17:46:34.403Z,23.08
2019-05-18T17:49:01.705Z,22.94
2019-05-18T17:51:30.278Z,22.84
2019-05-18T17:53:57.698Z,22.72
2019-05-18T17:56:24.949Z,22.67
2019-05-18T17:58:53.865Z,22.53
2019-05-18T18:01:21.166Z,22.37
2019-05-18T18:03:48.593Z,22.22
2019-05-18T18:06:17.034Z,22.08
2019-05-18T18:08:48.636Z,21.93
2019-05-18T18:11:16.165Z,21.75
2019-05-18T18:13:43.723Z,21.60
2019-05-18T18:16:10.970Z,21.48
2019-05-18T18:18:38.185Z,21.35
2019-05-18T18:21:05.342Z,21.24
2019-05-18T18:23:32.719Z,21.19
2019-05-18T18:26:00.814Z,21.13
2019-05-18T18:28:29.220Z,21.02
2019-05-18T18:30:57.455Z,20.91
2019-05-18T18:33:24.907Z,20.84
2019-05-18T18:35:52.172Z,20.81
2019-05-18T18:38:19.435Z,21.21
2019-05-18T18:40:46.697Z,20.96
2019-05-18T18:43:13.928Z,20.77
2019-05-18T18:45:42.075Z,20.55
2019-05-18T18:48:09.458Z,20.39
2019-05-18T18:50:36.705Z,20.18
2019-05-18T18:53:04.032Z,19.91
2019-05-18T18:55:31.297Z,19.64
2019-05-18T18:57:58.802Z,19.44
2019-05-18T19:00:26.073Z,19.12
2019-05-18T19:02:53.609Z,19.00
2019-05-18T19:05:21.193Z,18.89
2019-05-18T19:07:54.337Z,18.73
2019-05-18T19:10:25.119Z,18.55
2019-05-18T19:12:59.420Z,18.42
2019-05-18T19:15:27.283Z,18.39
2019-05-18T19:17:54.954Z,18.36
2019-05-18T19:20:22.581Z,18.26
2019-05-18T19:22:50.704Z,18.15
2019-05-18T19:25:18.138Z,18.01
2019-05-18T19:27:54.610Z,17.96
2019-05-18T19:30:17.674Z,18.07
2019-05-18T19:32:45.005Z,18.10
2019-05-18T19:35:13.070Z,17.97
2019-05-18T19:37:40.425Z,17.81
2019-05-18T19:40:08.523Z,17.71
2019-05-18T19:42:36.272Z,17.68
2019-05-18T19:45:04.578Z,17.69
2019-05-18T19:47:34.649Z,17.70
2019-05-18T19:50:03.727Z,17.60
2019-05-18T19:52:31.448Z,17.46
2019-05-18T19:54:58.829Z,17.31
2019-05-18T19:57:27.699Z,17.11
2019-05-18T19:59:54.995Z,16.94
2019-05-18T20:02:22.313Z,16.79
2019-05-18T20:05:06.820Z,16.65
2019-05-18T20:07:19.221Z,16.54
2019-05-18T20:09:46.550Z,16.42
2019-05-18T20:12:17.590Z,16.42
2019-05-18T20:14:44.903Z,16.40
2019-05-18T20:17:14.774Z,16.34
2019-05-18T20:19:42.443Z,16.25
2019-05-18T20:22:10.133Z,16.16
2019-05-18T20:24:38.055Z,16.14
2019-05-18T20:27:05.459Z,16.08
2019-05-18T20:29:33.405Z,16.03
2019-05-18T20:32:01.025Z,15.94
2019-05-18T20:34:28.443Z,15.94
2019-05-18T20:36:55.629Z,15.92
2019-05-18T20:39:22.985Z,16.09
2019-05-18T20:41:50.753Z,16.12
2019-05-18T20:44:18.054Z,15.94
2019-05-18T20:47:01.718Z,15.88
2019-05-18T20:49:32.458Z,15.76
2019-05-18T20:51:59.708Z,15.63
2019-05-18T20:54:27.146Z,15.55
2019-05-18T20:56:55.781Z,15.46
2019-05-18T20:59:23.207Z,15.40
2019-05-18T21:01:51.167Z,15.35
2019-05-18T21:04:18.508Z,15.32
2019-05-18T21:06:45.907Z,15.23
2019-05-18T21:09:13.985Z,15.21
2019-05-18T21:11:41.403Z,15.12
2019-05-18T21:14:09.354Z,15.07
2019-05-18T21:16:37.644Z,15.04
2019-05-18T21:19:05.016Z,15.17
2019-05-18T21:21:32.391Z,15.10
2019-05-18T21:23:59.820Z,15.02
2019-05-18T21:26:27.032Z,15.04
2019-05-18T21:28:59.339Z,15.15
2019-05-18T21:31:23.689Z,15.06
2019-05-18T21:33:51.395Z,15.05
2019-05-18T21:36:18.635Z,15.08
2019-05-18T21:38:45.859Z,15.03
2019-05-18T21:41:13.147Z,14.96
2019-05-18T21:43:40.456Z,14.92
2019-05-18T21:46:08.173Z,14.94
2019-05-18T21:48:37.542Z,14.97
2019-05-18T21:51:04.839Z,14.99
2019-05-18T21:53:33.013Z,15.08
2019-05-18T21:56:00.309Z,15.16
2019-05-18T21:58:27.822Z,15.25
2019-05-18T22:00:55.292Z,15.17
2019-05-18T22:03:22.483Z,15.21
2019-05-18T22:05:50.690Z,15.16
2019-05-18T22:08:20.199Z,15.07
2019-05-18T22:10:47.442Z,15.05
2019-05-18T22:13:14.720Z,15.12
2019-05-18T22:15:42.718Z,14.97
2019-05-18T22:18:23.721Z,14.92
2019-05-18T22:20:44.072Z,14.93
2019-05-18T22:23:09.349Z,14.96
2019-05-18T22:25:36.677Z,14.87
2019-05-18T22:28:04.630Z,14.82
2019-05-18T22:30:32.907Z,14.86
2019-05-18T22:33:00.205Z,14.79
2019-05-18T22:35:27.549Z,14.82
2019-05-18T22:37:54.886Z,14.80
2019-05-18T22:40:22.146Z,14.74
2019-05-18T22:42:49.413Z,14.71
2019-05-18T22:45:16.666Z,14.65
2019-05-18T22:47:44.068Z,14.61
2019-05-18T22:50:11.553Z,14.72
2019-05-18T22:52:39.764Z,14.76
2019-05-18T22:55:07.595Z,14.70
2019-05-18T22:57:37.591Z,14.68
2019-05-18T23:00:05.949Z,14.64
2019-05-18T23:02:35.140Z,14.68
2019-05-18T23:05:03.347Z,14.64
2019-05-18T23:07:31.856Z,14.61
2019-05-18T23:10:00.763Z,14.57
2019-05-18T23:12:28.446Z,14.58
2019-05-18T23:14:56.099Z,14.60
2019-05-18T23:17:24.466Z,14.60
2019-05-18T23:19:52.780Z,14.60
2019-05-18T23:22:20.068Z,14.61
2019-05-18T23:24:47.322Z,14.61
2019-05-18T23:27:19.226Z,14.63
2019-05-18T23:29:50.183Z,14.65
2019-05-18T23:32:18.152Z,14.67
2019-05-18T23:34:45.417Z,14.71
2019-05-18T23:37:13.654Z,14.81
2019-05-18T23:39:42.705Z,14.80
2019-05-18T23:42:10.684Z,14.77
2019-05-18T23:44:39.509Z,14.77
2019-05-18T23:47:07.796Z,14.78
2019-05-18T23:49:35.522Z,14.78
2019-05-18T23:52:05.059Z,14.74
2019-05-18T23:54:32.166Z,14.74
2019-05-18T23:57:00.127Z,14.69
2019-05-18T23:59:28.040Z,14.59
